Time;durP1;ratioP1;P1;durP2;ratioP2;P2;SDS_P1;SDS_P2;PMS_P1;PMS_P2;Temp;Humidity;BMP_temperature;BMP_pressure;BME280_temperature;BME280_humidity;BME280_pressure;Samples;Min_cycle;Max_cycle;Signal;HPM_P1;HPM_P2
2023/07/22 00:01:34;;;;;;;3.05;0.93;;;15.90;99.90;;;;;;5012259;28;20564;-66
2023/07/22 00:04:01;;;;;;;2.40;1.20;;;15.90;99.90;;;;;;5016396;28;20048;-67
2023/07/22 00:06:28;;;;;;;4.38;2.30;;;15.90;99.90;;;;;;5011603;28;20046;-67
2023/07/22 00:08:55;;;;;;;3.75;1.38;;;15.90;99.90;;;;;;5015729;28;20046;-66
2023/07/22 00:11:22;;;;;;;1.98;0.85;;;15.90;99.90;;;;;;5017961;28;20133;-66
2023/07/22 00:13:49;;;;;;;5.15;2.15;;;15.80;99.90;;;;;;5016038;28;20049;-67
2023/07/22 00:16:16;;;;;;;2.83;1.10;;;15.80;99.90;;;;;;5011535;28;20073;-67
2023/07/22 00:18:43;;;;;;;3.35;0.95;;;15.80;99.90;;;;;;5012730;28;20042;-66
2023/07/22 00:21:10;;;;;;;1.45;0.75;;;15.80;99.90;;;;;;5015942;28;20103;-67
2023/07/22 00:23:37;;;;;;;2.55;1.23;;;15.80;99.90;;;;;;5023246;28;20062;-67
2023/07/22 00:26:04;;;;;;;2.60;1.35;;;15.80;99.90;;;;;;5014587;28;20049;-66
2023/07/22 00:28:31;;;;;;;2.08;1.38;;;15.80;99.90;;;;;;5015009;28;20432;-65
2023/07/22 00:30:58;;;;;;;2.75;1.63;;;15.80;99.90;;;;;;5012845;28;20049;-65
2023/07/22 00:33:25;;;;;;;8.00;1.27;;;15.70;99.90;;;;;;5013651;28;20038;-66
2023/07/22 00:35:51;;;;;;;5.28;0.95;;;15.70;99.90;;;;;;5013804;28;20099;-67
2023/07/22 00:38:19;;;;;;;1.38;1.25;;;15.70;99.90;;;;;;5028892;28;20046;-65
2023/07/22 00:40:46;;;;;;;5.05;1.40;;;15.70;99.90;;;;;;5012288;28;20140;-66
2023/07/22 00:43:13;;;;;;;1.48;0.90;;;15.60;99.90;;;;;;5015836;28;20120;-64
2023/07/22 00:45:40;;;;;;;3.47;2.10;;;15.60;99.90;;;;;;5047199;28;20045;-66
2023/07/22 00:48:09;;;;;;;3.20;1.98;;;15.60;99.90;;;;;;5012862;28;20053;-66
2023/07/22 00:50:38;;;;;;;1.33;1.10;;;15.50;99.90;;;;;;5017368;28;20042;-66
2023/07/22 00:53:05;;;;;;;1.83;1.08;;;15.50;99.90;;;;;;5018850;28;20041;-66
2023/07/22 00:55:34;;;;;;;5.30;1.35;;;15.50;99.90;;;;;;5017187;28;20053;-67
2023/07/22 00:58:01;;;;;;;1.50;1.20;;;15.60;99.90;;;;;;5020468;28;20061;-66
2023/07/22 01:00:28;;;;;;;2.35;1.25;;;15.50;99.90;;;;;;5019059;28;20045;-67
2023/07/22 01:02:54;;;;;;;1.75;1.00;;;15.50;99.90;;;;;;5018304;28;20041;-68
2023/07/22 01:05:21;;;;;;;5.18;1.63;;;15.50;99.90;;;;;;5013528;28;20050;-66
2023/07/22 01:07:48;;;;;;;2.58;1.33;;;15.50;99.90;;;;;;5010965;28;20487;-65
2023/07/22 01:10:15;;;;;;;4.68;1.73;;;15.50;99.90;;;;;;5013580;28;20469;-66
2023/07/22 01:12:44;;;;;;;4.22;1.30;;;15.50;99.90;;;;;;5015956;28;20132;-66
2023/07/22 01:15:11;;;;;;;3.13;2.30;;;15.50;99.90;;;;;;5048535;28;20051;-66
2023/07/22 01:17:39;;;;;;;4.10;2.15;;;15.40;99.90;;;;;;5016559;28;20045;-68
2023/07/22 01:20:07;;;;;;;1.50;0.90;;;15.40;99.90;;;;;;5021016;28;20045;-66
2023/07/22 01:22:35;;;;;;;6.68;1.45;;;15.40;99.90;;;;;;5013809;28;20046;-67
2023/07/22 01:25:03;;;;;;;6.03;1.25;;;15.40;99.90;;;;;;5014621;28;20037;-67
2023/07/22 01:27:30;;;;;;;5.65;1.33;;;15.30;99.90;;;;;;5019580;28;20065;-66
2023/07/22 01:29:56;;;;;;;3.17;1.75;;;15.40;99.90;;;;;;5015243;28;20041;-65
2023/07/22 01:32:23;;;;;;;3.08;1.30;;;15.30;99.90;;;;;;5019362;28;20124;-67
2023/07/22 01:34:50;;;;;;;1.40;1.00;;;15.30;99.90;;;;;;5014874;28;20136;-66
2023/07/22 01:37:17;;;;;;;2.03;0.90;;;15.30;99.90;;;;;;5015458;28;20447;-66
2023/07/22 01:39:44;;;;;;;1.98;0.65;;;15.30;99.90;;;;;;5014921;28;20073;-68
2023/07/22 01:42:11;;;;;;;7.07;1.02;;;15.30;99.90;;;;;;5012820;28;20041;-65
2023/07/22 01:44:40;;;;;;;4.00;1.52;;;15.30;99.90;;;;;;5015371;28;20046;-66
2023/07/22 01:47:07;;;;;;;2.65;1.10;;;15.30;99.90;;;;;;5011130;28;20049;-66
2023/07/22 01:49:34;;;;;;;2.22;0.80;;;15.20;99.90;;;;;;5013987;28;20034;-65
2023/07/22 01:52:01;;;;;;;4.47;1.60;;;15.20;99.90;;;;;;5015806;28;20140;-66
2023/07/22 01:54:28;;;;;;;1.77;1.13;;;15.20;99.90;;;;;;5016344;28;20041;-67
2023/07/22 01:56:55;;;;;;;3.92;1.98;;;15.20;99.90;;;;;;5013686;28;20108;-65
2023/07/22 01:59:22;;;;;;;1.77;1.10;;;15.20;99.90;;;;;;5017235;28;20460;-65
2023/07/22 02:01:49;;;;;;;1.60;1.10;;;15.20;99.90;;;;;;5015962;28;20053;-66
2023/07/22 02:04:17;;;;;;;4.22;1.48;;;15.10;99.90;;;;;;5047919;28;20073;-66
2023/07/22 02:06:44;;;;;;;2.22;0.93;;;15.10;99.90;;;;;;5022741;28;20041;-66
2023/07/22 02:09:13;;;;;;;2.58;0.82;;;15.10;99.90;;;;;;5017463;28;20057;-66
2023/07/22 02:11:40;;;;;;;1.65;0.95;;;15.10;99.90;;;;;;5007737;28;20511;-66
2023/07/22 02:14:07;;;;;;;2.33;1.05;;;15.00;99.90;;;;;;5017310;28;20172;-65
2023/07/22 02:16:37;;;;;;;1.30;0.80;;;15.00;99.90;;;;;;5014791;28;20140;-65
2023/07/22 02:19:05;;;;;;;1.33;1.05;;;15.00;99.90;;;;;;5010595;28;20107;-66
2023/07/22 02:21:39;;;;;;;1.65;1.33;;;15.00;99.90;;;;;;5013560;28;20045;-66
2023/07/22 02:24:07;;;;;;;2.28;1.00;;;15.00;99.90;;;;;;5010938;28;20456;-66
2023/07/22 02:26:34;;;;;;;3.58;0.93;;;15.00;99.90;;;;;;5016069;28;20071;-66
2023/07/22 02:29:00;;;;;;;2.38;0.88;;;15.00;99.90;;;;;;5010241;28;20120;-67
2023/07/22 02:31:28;;;;;;;1.20;0.82;;;15.00;99.90;;;;;;5012847;28;20054;-66
2023/07/22 02:33:55;;;;;;;3.25;0.90;;;15.00;99.90;;;;;;5015613;28;20040;-66
2023/07/22 02:36:22;;;;;;;4.10;0.98;;;14.90;99.90;;;;;;5016296;28;20473;-66
2023/07/22 02:38:49;;;;;;;3.17;1.00;;;15.00;99.90;;;;;;5018088;28;20053;-67
2023/07/22 02:41:16;;;;;;;1.40;0.82;;;15.00;99.90;;;;;;5011486;28;20034;-65
2023/07/22 02:43:43;;;;;;;2.50;1.52;;;15.00;99.90;;;;;;5009724;28;20073;-66
2023/07/22 02:46:10;;;;;;;6.13;1.45;;;15.00;99.90;;;;;;5013280;28;20212;-66
2023/07/22 02:48:38;;;;;;;2.63;0.77;;;15.00;99.90;;;;;;5016887;28;20126;-65
2023/07/22 02:51:07;;;;;;;3.53;0.70;;;15.00;99.90;;;;;;5008179;28;20052;-66
2023/07/22 02:53:38;;;;;;;2.33;0.90;;;15.00;99.90;;;;;;5012692;28;20770;-66
2023/07/22 02:56:08;;;;;;;1.48;0.60;;;15.00;99.90;;;;;;5012439;28;20046;-67
2023/07/22 02:58:36;;;;;;;1.58;1.00;;;15.00;99.90;;;;;;5014119;28;20599;-67
2023/07/22 03:01:08;;;;;;;2.67;1.00;;;15.00;99.90;;;;;;5013968;28;20049;-66
2023/07/22 03:03:36;;;;;;;5.53;0.70;;;15.00;99.90;;;;;;5015946;28;20060;-67
2023/07/22 03:06:05;;;;;;;3.42;0.90;;;15.00;99.90;;;;;;5014676;28;20072;-67
2023/07/22 03:08:32;;;;;;;1.85;0.80;;;15.00;99.90;;;;;;5011713;28;20081;-67
2023/07/22 03:10:59;;;;;;;8.38;0.98;;;15.10;99.90;;;;;;5017350;28;20041;-65
2023/07/22 03:13:29;;;;;;;2.85;0.90;;;15.10;99.90;;;;;;5018322;28;20061;-67
2023/07/22 03:15:57;;;;;;;3.95;1.00;;;15.10;99.90;;;;;;5010213;28;20045;-66
2023/07/22 03:18:24;;;;;;;3.70;0.85;;;15.10;99.90;;;;;;5022980;28;20044;-66
2023/07/22 03:20:51;;;;;;;2.28;1.50;;;15.10;99.90;;;;;;5020845;28;20099;-67
2023/07/22 03:23:19;;;;;;;5.13;1.65;;;15.10;99.90;;;;;;5018283;28;20052;-65
2023/07/22 03:25:48;;;;;;;2.50;0.85;;;15.20;99.90;;;;;;5017772;28;20092;-66
2023/07/22 03:28:14;;;;;;;1.60;0.93;;;15.10;99.90;;;;;;5019894;28;20061;-66
2023/07/22 03:30:42;;;;;;;1.70;1.23;;;15.20;99.90;;;;;;5019369;28;20041;-66
2023/07/22 03:33:10;;;;;;;1.13;0.82;;;15.20;99.90;;;;;;5017320;28;20045;-67
2023/07/22 03:35:37;;;;;;;3.03;1.10;;;15.20;99.90;;;;;;5021632;28;20050;-67
2023/07/22 03:38:04;;;;;;;3.00;0.82;;;15.30;99.90;;;;;;5018872;28;20386;-65
2023/07/22 03:40:32;;;;;;;2.50;1.00;;;15.30;99.90;;;;;;5014393;28;20065;-68
2023/07/22 03:42:59;;;;;;;1.33;1.17;;;15.30;99.90;;;;;;5050564;28;20081;-66
2023/07/22 03:45:27;;;;;;;1.48;0.80;;;15.30;99.90;;;;;;5015802;28;20041;-66
2023/07/22 03:47:57;;;;;;;1.42;1.33;;;15.30;99.90;;;;;;5012646;28;20120;-67
2023/07/22 03:50:25;;;;;;;3.60;1.00;;;15.30;99.90;;;;;;5011021;28;20502;-68
2023/07/22 03:52:52;;;;;;;3.70;1.15;;;15.30;99.90;;;;;;5013584;28;20046;-66
2023/07/22 03:55:19;;;;;;;1.27;1.02;;;15.30;99.90;;;;;;5026088;28;20054;-67
2023/07/22 03:57:46;;;;;;;1.40;0.80;;;15.30;99.90;;;;;;5013630;28;20077;-66
2023/07/22 04:00:14;;;;;;;1.85;0.82;;;15.30;99.90;;;;;;5014621;28;20041;-67
2023/07/22 04:02:41;;;;;;;1.00;0.90;;;15.30;99.90;;;;;;5019109;28;20061;-68
2023/07/22 04:05:09;;;;;;;2.45;1.00;;;15.30;99.90;;;;;;5014688;28;20049;-65
2023/07/22 04:07:37;;;;;;;3.95;0.52;;;15.30;99.90;;;;;;5015118;28;20065;-66
2023/07/22 04:10:04;;;;;;;4.13;0.85;;;15.30;99.90;;;;;;5010993;28;21299;-66
2023/07/22 04:12:31;;;;;;;1.70;1.13;;;15.30;99.90;;;;;;5017984;28;20057;-66
2023/07/22 04:14:58;;;;;;;2.53;1.35;;;15.30;99.90;;;;;;5017190;28;20100;-67
2023/07/22 04:17:28;;;;;;;2.35;1.35;;;15.30;99.90;;;;;;5018522;28;20060;-67
2023/07/22 04:19:55;;;;;;;1.58;1.13;;;15.30;99.90;;;;;;5019276;28;20049;-66
2023/07/22 04:22:22;;;;;;;2.08;0.80;;;15.30;99.90;;;;;;5013473;28;20037;-68
2023/07/22 04:24:49;;;;;;;2.25;1.38;;;15.30;99.90;;;;;;5019908;28;20077;-65
2023/07/22 04:27:16;;;;;;;1.50;1.13;;;15.30;99.90;;;;;;5020095;28;20501;-66
2023/07/22 04:29:45;;;;;;;3.45;1.08;;;15.40;99.90;;;;;;5016880;28;20045;-65
2023/07/22 04:32:12;;;;;;;1.52;1.08;;;15.40;99.90;;;;;;5007773;28;20038;-66
2023/07/22 04:34:39;;;;;;;4.80;0.98;;;15.40;99.90;;;;;;5013930;28;20049;-66
2023/07/22 04:37:06;;;;;;;11.38;1.80;;;15.40;99.90;;;;;;5022249;28;20042;-65
2023/07/22 04:39:34;;;;;;;4.25;1.08;;;15.40;99.90;;;;;;5018381;28;20485;-66
2023/07/22 04:42:01;;;;;;;0.85;0.68;;;15.40;99.90;;;;;;5024728;28;20119;-66
2023/07/22 04:44:28;;;;;;;1.65;0.60;;;15.50;99.90;;;;;;5023002;28;20464;-66
2023/07/22 04:46:55;;;;;;;2.45;1.17;;;15.50;99.90;;;;;;5017162;28;20080;-66
2023/07/22 04:49:22;;;;;;;1.20;0.65;;;15.50;99.90;;;;;;5015120;28;20147;-66
2023/07/22 04:51:50;;;;;;;3.63;1.63;;;15.50;99.90;;;;;;5015766;28;20049;-66
2023/07/22 04:54:18;;;;;;;1.35;0.77;;;15.50;99.90;;;;;;5017815;28;20098;-66
2023/07/22 04:56:45;;;;;;;1.40;1.02;;;15.60;99.90;;;;;;5010473;28;20564;-66
2023/07/22 04:59:14;;;;;;;1.73;0.95;;;15.60;99.90;;;;;;5016492;28;20056;-67
2023/07/22 05:01:41;;;;;;;2.08;1.55;;;15.60;99.90;;;;;;5011974;28;20423;-67
2023/07/22 05:04:08;;;;;;;4.00;0.88;;;15.70;99.90;;;;;;5011577;28;20143;-66
2023/07/22 05:06:36;;;;;;;1.70;0.93;;;15.60;99.90;;;;;;5015104;28;20485;-67
2023/07/22 05:09:03;;;;;;;2.08;1.02;;;15.70;99.90;;;;;;5014429;28;20173;-66
2023/07/22 05:11:30;;;;;;;5.15;2.08;;;15.70;99.90;;;;;;5014558;28;20042;-65
2023/07/22 05:13:57;;;;;;;2.22;0.82;;;15.70;99.90;;;;;;5012964;28;20049;-66
2023/07/22 05:16:24;;;;;;;5.55;1.20;;;15.70;99.90;;;;;;5014059;28;20133;-66
2023/07/22 05:18:52;;;;;;;3.22;1.27;;;15.80;99.90;;;;;;5016619;28;20057;-66
2023/07/22 05:21:19;;;;;;;1.45;1.35;;;15.80;99.90;;;;;;5013405;28;20068;-67
2023/07/22 05:23:45;;;;;;;4.18;1.00;;;15.90;99.90;;;;;;5018938;28;20065;-65
2023/07/22 05:26:12;;;;;;;1.90;0.90;;;15.90;99.90;;;;;;5011584;28;20033;-66
2023/07/22 05:28:39;;;;;;;3.13;1.23;;;15.90;99.90;;;;;;5013359;28;20053;-67
2023/07/22 05:31:06;;;;;;;1.58;0.52;;;15.90;99.90;;;;;;5016589;28;20049;-66
2023/07/22 05:33:33;;;;;;;2.15;0.90;;;15.90;99.90;;;;;;5022181;28;20045;-66
2023/07/22 05:36:00;;;;;;;0.73;0.50;;;15.90;99.90;;;;;;5019202;28;20551;-66
2023/07/22 05:38:27;;;;;;;4.07;1.05;;;15.90;99.90;;;;;;5018760;28;20041;-66
2023/07/22 05:40:54;;;;;;;2.65;1.08;;;15.90;99.90;;;;;;5013564;28;20053;-66
2023/07/22 05:43:22;;;;;;;2.53;0.80;;;15.90;99.90;;;;;;5022182;28;20555;-66
2023/07/22 05:45:49;;;;;;;1.40;0.80;;;16.00;99.90;;;;;;5014000;28;20077;-65
2023/07/22 05:48:16;;;;;;;2.22;0.88;;;16.00;99.90;;;;;;5021618;28;20049;-67
2023/07/22 05:50:43;;;;;;;1.27;0.85;;;16.00;99.90;;;;;;5017828;28;20049;-66
2023/07/22 05:53:10;;;;;;;2.40;0.85;;;16.00;99.90;;;;;;5020899;28;20107;-66
2023/07/22 05:55:37;;;;;;;3.50;0.82;;;16.00;99.90;;;;;;5014794;28;20118;-66
2023/07/22 05:58:05;;;;;;;2.63;1.25;;;15.90;99.90;;;;;;5020773;28;20072;-67
2023/07/22 06:00:33;;;;;;;1.10;1.10;;;16.00;99.90;;;;;;5016147;28;20072;-67
2023/07/22 06:03:01;;;;;;;3.40;0.85;;;15.90;99.90;;;;;;5008693;28;20069;-66
2023/07/22 06:05:28;;;;;;;1.73;0.70;;;15.90;99.90;;;;;;5017923;28;20067;-66
2023/07/22 06:07:56;;;;;;;1.85;0.77;;;16.00;99.90;;;;;;5017844;28;20526;-66
2023/07/22 06:10:24;;;;;;;3.10;0.82;;;16.10;99.90;;;;;;5011631;28;20463;-66
2023/07/22 06:12:50;;;;;;;6.07;0.95;;;16.00;99.90;;;;;;5014704;28;20121;-66
2023/07/22 06:15:17;;;;;;;2.58;2.00;;;16.00;99.90;;;;;;5013818;28;20052;-65
2023/07/22 06:17:44;;;;;;;1.75;0.88;;;16.00;99.90;;;;;;5014237;28;20129;-67
2023/07/22 06:20:12;;;;;;;0.65;0.65;;;16.00;99.90;;;;;;5017591;28;20068;-66
2023/07/22 06:22:39;;;;;;;2.03;0.60;;;16.00;99.90;;;;;;5017418;28;20054;-68
2023/07/22 06:25:06;;;;;;;0.90;0.65;;;16.10;99.90;;;;;;5017147;28;20054;-66
2023/07/22 06:27:34;;;;;;;5.38;0.88;;;16.10;99.90;;;;;;5009011;28;20041;-69
2023/07/22 06:30:02;;;;;;;3.72;1.30;;;16.00;99.90;;;;;;5014071;28;20487;-66
2023/07/22 06:32:29;;;;;;;2.97;0.70;;;16.10;99.90;;;;;;5018173;28;20129;-67
2023/07/22 06:34:58;;;;;;;0.93;0.57;;;16.20;99.90;;;;;;5013995;28;20034;-67
2023/07/22 06:37:25;;;;;;;2.60;1.10;;;16.20;99.90;;;;;;5009530;28;20452;-66
2023/07/22 06:39:53;;;;;;;4.03;0.65;;;16.20;99.90;;;;;;5020295;28;20056;-65
2023/07/22 06:42:20;;;;;;;2.47;1.30;;;16.20;99.90;;;;;;5010350;28;20038;-66
2023/07/22 06:44:47;;;;;;;4.70;1.20;;;16.20;99.90;;;;;;5008519;28;20120;-65
2023/07/22 06:47:14;;;;;;;1.88;0.85;;;16.30;99.90;;;;;;5019490;28;20082;-67
2023/07/22 06:49:41;;;;;;;1.05;0.47;;;16.30;99.90;;;;;;5021025;28;20050;-67
2023/07/22 06:52:12;;;;;;;1.75;0.77;;;16.30;99.90;;;;;;5014732;28;20042;-68
2023/07/22 06:54:40;;;;;;;1.95;1.00;;;16.30;99.90;;;;;;5024702;28;20128;-66
2023/07/22 06:57:07;;;;;;;1.13;0.52;;;16.30;99.90;;;;;;5017986;28;20049;-66
2023/07/22 06:59:34;;;;;;;0.60;0.57;;;16.40;99.90;;;;;;5018827;28;20045;-66
2023/07/22 07:02:01;;;;;;;2.35;1.00;;;16.40;99.90;;;;;;5011768;28;20077;-67
2023/07/22 07:04:28;;;;;;;2.40;0.73;;;16.40;99.90;;;;;;5022701;28;20050;-67
2023/07/22 07:06:55;;;;;;;3.83;1.00;;;16.40;99.90;;;;;;5014650;28;20034;-66
2023/07/22 07:09:22;;;;;;;2.97;0.57;;;16.40;99.90;;;;;;5014357;28;20058;-67
2023/07/22 07:11:49;;;;;;;1.85;0.80;;;16.40;99.90;;;;;;5019035;28;20550;-66
2023/07/22 07:14:16;;;;;;;1.85;0.75;;;16.40;99.90;;;;;;5019804;28;20076;-66
2023/07/22 07:16:43;;;;;;;1.33;1.10;;;16.50;99.90;;;;;;5016475;28;20408;-67
2023/07/22 07:19:10;;;;;;;2.25;1.08;;;16.40;99.90;;;;;;5019941;28;20045;-68
2023/07/22 07:21:37;;;;;;;2.30;0.90;;;16.40;99.90;;;;;;5020136;28;20049;-67
2023/07/22 07:24:04;;;;;;;2.35;1.23;;;16.50;99.90;;;;;;5015260;28;20483;-66
2023/07/22 07:26:31;;;;;;;3.45;1.25;;;16.50;99.90;;;;;;5015067;28;20053;-66
2023/07/22 07:28:57;;;;;;;2.67;1.00;;;16.50;99.90;;;;;;5016606;28;20072;-66
2023/07/22 07:31:24;;;;;;;1.48;0.80;;;16.60;99.90;;;;;;5012397;28;20121;-67
2023/07/22 07:33:51;;;;;;;1.52;0.50;;;16.50;99.90;;;;;;5023353;28;20045;-66
2023/07/22 07:36:18;;;;;;;2.95;1.40;;;16.50;99.90;;;;;;5017051;28;20093;-66
2023/07/22 07:38:45;;;;;;;2.35;0.65;;;16.50;99.90;;;;;;5020127;28;20495;-67
2023/07/22 07:41:12;;;;;;;2.03;1.08;;;16.60;99.90;;;;;;5013623;28;20531;-66
2023/07/22 07:43:41;;;;;;;1.08;0.90;;;16.70;99.90;;;;;;5015643;28;20509;-66
2023/07/22 07:46:21;;;;;;;1.65;1.00;;;16.80;99.90;;;;;;5016332;28;20506;-66
2023/07/22 07:48:53;;;;;;;2.78;0.93;;;16.90;99.90;;;;;;5013270;28;20401;-66
2023/07/22 07:51:21;;;;;;;2.70;0.70;;;16.80;99.90;;;;;;5018020;28;20604;-67
2023/07/22 07:53:49;;;;;;;1.95;0.88;;;16.90;99.90;;;;;;5020249;28;20037;-67
2023/07/22 07:56:17;;;;;;;1.55;0.77;;;16.90;99.90;;;;;;5019519;28;20049;-66
2023/07/22 07:58:46;;;;;;;1.08;0.47;;;17.10;99.90;;;;;;5015361;28;20089;-66
2023/07/22 08:01:13;;;;;;;1.17;0.88;;;17.20;99.90;;;;;;5017454;28;20527;-66
2023/07/22 08:03:41;;;;;;;1.80;0.80;;;17.20;99.90;;;;;;5016072;28;20125;-67
2023/07/22 08:06:10;;;;;;;1.77;1.10;;;17.20;99.90;;;;;;5017902;28;20046;-66
2023/07/22 08:08:37;;;;;;;1.58;0.55;;;17.20;99.90;;;;;;5016919;28;20072;-66
2023/07/22 08:11:13;;;;;;;0.75;0.65;;;17.20;99.90;;;;;;5013901;28;20041;-68
2023/07/22 08:13:42;;;;;;;1.85;0.90;;;17.30;99.90;;;;;;5015432;28;20046;-67
2023/07/22 08:16:10;;;;;;;1.75;0.70;;;17.40;99.90;;;;;;5015016;28;20042;-66
2023/07/22 08:18:38;;;;;;;0.70;0.70;;;17.40;99.90;;;;;;5016553;28;20046;-67
2023/07/22 08:21:09;;;;;;;1.33;0.80;;;17.30;99.90;;;;;;5017237;28;20058;-68
2023/07/22 08:23:37;;;;;;;1.48;1.38;;;17.40;99.90;;;;;;5017688;28;20103;-65
2023/07/22 08:26:07;;;;;;;1.05;0.68;;;17.30;99.90;;;;;;5015868;28;20091;-66
2023/07/22 08:28:34;;;;;;;;;;;17.40;99.90;;;;;;5015463;28;20046;-67
2023/07/22 08:31:01;;;;;;;9.27;0.98;;;17.50;99.90;;;;;;5016151;28;20362;-66
2023/07/22 08:33:29;;;;;;;5.28;1.30;;;17.50;99.90;;;;;;5021447;28;20050;-66
2023/07/22 08:36:08;;;;;;;1.50;0.68;;;17.50;99.90;;;;;;5011179;28;20085;-67
2023/07/22 08:38:35;;;;;;;2.63;1.00;;;17.40;99.90;;;;;;5020154;28;20498;-66
2023/07/22 08:41:02;;;;;;;3.08;1.13;;;17.50;99.90;;;;;;5013550;28;20050;-66
2023/07/22 08:43:30;;;;;;;2.55;0.57;;;17.70;99.90;;;;;;5019754;28;20237;-66
2023/07/22 08:46:00;;;;;;;3.22;0.63;;;17.80;99.90;;;;;;5021085;28;20104;-66
2023/07/22 08:48:32;;;;;;;1.02;0.80;;;17.80;99.90;;;;;;5022722;28;20041;-66
2023/07/22 08:51:17;;;;;;;1.23;0.90;;;18.00;99.90;;;;;;5016584;28;20103;-66
2023/07/22 08:53:46;;;;;;;1.42;0.55;;;18.10;99.90;;;;;;5014510;28;20137;-65
2023/07/22 08:56:31;;;;;;;2.38;0.88;;;18.30;99.90;;;;;;5019335;28;20045;-66
2023/07/22 08:58:58;;;;;;;1.88;0.52;;;18.40;99.90;;;;;;5019734;28;20053;-67
2023/07/22 09:01:25;;;;;;;2.15;0.55;;;18.30;99.90;;;;;;5021645;28;20038;-66
2023/07/22 09:03:54;;;;;;;2.85;0.88;;;18.30;99.90;;;;;;5016248;28;20096;-65
2023/07/22 09:06:21;;;;;;;1.20;1.10;;;18.30;99.90;;;;;;5016129;28;20041;-67
2023/07/22 09:08:48;;;;;;;0.75;0.43;;;18.30;99.90;;;;;;5014929;28;20133;-66
2023/07/22 09:11:15;;;;;;;1.92;0.55;;;18.30;99.90;;;;;;5011759;28;20141;-66
2023/07/22 09:13:44;;;;;;;2.63;0.65;;;18.50;99.90;;;;;;5014959;28;20096;-68
2023/07/22 09:16:12;;;;;;;1.77;0.88;;;18.50;99.90;;;;;;5018297;28;20077;-66
2023/07/22 09:18:39;;;;;;;3.33;2.53;;;18.60;99.90;;;;;;5016834;28;20065;-66
2023/07/22 09:21:06;;;;;;;1.35;0.60;;;18.70;99.90;;;;;;5008611;28;21381;-66
2023/07/22 09:23:34;;;;;;;1.27;0.60;;;18.60;99.90;;;;;;5020396;28;20038;-66
2023/07/22 09:26:12;;;;;;;3.10;1.02;;;18.60;99.90;;;;;;5019958;28;20609;-67
2023/07/22 09:28:55;;;;;;;1.55;0.93;;;18.80;99.90;;;;;;5014531;28;20060;-66
2023/07/22 09:31:24;;;;;;;2.30;1.08;;;18.80;99.90;;;;;;5010512;28;20483;-65
2023/07/22 09:33:55;;;;;;;2.05;1.13;;;18.80;99.90;;;;;;5009285;28;20469;-67
2023/07/22 09:36:22;;;;;;;2.08;0.73;;;18.70;99.90;;;;;;5011467;28;20071;-67
2023/07/22 09:39:02;;;;;;;1.00;0.85;;;18.70;99.90;;;;;;5019999;28;20057;-66
2023/07/22 09:41:30;;;;;;;;;;;18.70;99.90;;;;;;5017614;28;20049;-65
2023/07/22 09:43:57;;;;;;;1.65;0.70;;;18.80;99.90;;;;;;5008158;28;20379;-66
2023/07/22 09:46:34;;;;;;;7.28;1.38;;;18.80;99.90;;;;;;5016224;28;20107;-66
2023/07/22 09:49:05;;;;;;;3.17;1.67;;;18.80;99.90;;;;;;5011624;28;20712;-66
2023/07/22 09:51:34;;;;;;;0.77;0.63;;;18.60;99.90;;;;;;5013419;28;20124;-68
2023/07/22 09:54:08;;;;;;;4.82;0.88;;;18.60;99.90;;;;;;5012266;28;20050;-66
2023/07/22 09:56:50;;;;;;;2.15;1.23;;;18.80;99.90;;;;;;5014536;28;20045;-66
2023/07/22 09:59:22;;;;;;;2.50;1.40;;;18.80;99.90;;;;;;5013441;28;20656;-66
2023/07/22 10:01:51;;;;;;;4.68;3.13;;;18.90;99.90;;;;;;5013027;28;20053;-66
2023/07/22 10:04:23;;;;;;;3.78;0.73;;;18.90;99.90;;;;;;5013029;28;20045;-67
2023/07/22 10:06:51;;;;;;;3.83;0.82;;;19.00;99.90;;;;;;5011168;28;20049;-66
2023/07/22 10:09:20;;;;;;;2.28;0.93;;;18.90;99.90;;;;;;5011158;28;20144;-66
2023/07/22 10:11:47;;;;;;;2.50;0.80;;;18.80;99.90;;;;;;5015312;28;20049;-66
2023/07/22 10:14:14;;;;;;;2.92;0.60;;;18.90;99.90;;;;;;5015972;28;20092;-67
2023/07/22 10:16:42;;;;;;;1.55;0.47;;;18.90;99.90;;;;;;5020183;28;20073;-67
2023/07/22 10:19:09;;;;;;;2.42;0.82;;;19.00;99.90;;;;;;5015934;28;20380;-68
2023/07/22 10:21:38;;;;;;;1.90;1.33;;;19.00;99.90;;;;;;5013537;28;20157;-67
2023/07/22 10:24:06;;;;;;;0.50;0.30;;;19.20;99.90;;;;;;5015135;28;20069;-66
2023/07/22 10:26:34;;;;;;;3.88;0.80;;;19.20;99.90;;;;;;5015812;28;20056;-66
2023/07/22 10:29:13;;;;;;;2.47;1.42;;;19.20;99.90;;;;;;5015884;28;20762;-66
2023/07/22 10:31:41;;;;;;;2.55;1.08;;;19.20;99.90;;;;;;5020004;28;20073;-66
2023/07/22 10:34:08;;;;;;;1.75;0.90;;;19.10;99.90;;;;;;5019735;28;20124;-67
2023/07/22 10:36:36;;;;;;;0.50;0.50;;;19.00;99.90;;;;;;5024515;28;20040;-65
2023/07/22 10:39:03;;;;;;;0.85;0.70;;;19.10;99.90;;;;;;5012888;28;20049;-66
2023/07/22 10:41:32;;;;;;;1.17;0.65;;;18.90;99.90;;;;;;5016667;28;20047;-66
2023/07/22 10:44:00;;;;;;;1.13;0.60;;;18.90;99.90;;;;;;5014599;28;20057;-66
2023/07/22 10:46:38;;;;;;;2.17;0.90;;;19.00;99.90;;;;;;5017020;28;20085;-66
2023/07/22 10:49:13;;;;;;;0.93;0.38;;;19.20;99.90;;;;;;5012660;28;20045;-67
2023/07/22 10:51:41;;;;;;;3.75;0.80;;;19.50;99.90;;;;;;5010240;28;20269;-67
2023/07/22 10:54:35;;;;;;;1.65;0.68;;;19.70;99.90;;;;;;5012722;28;20518;-66
2023/07/22 10:57:04;;;;;;;2.13;1.48;;;19.80;99.90;;;;;;5015026;28;20049;-68
2023/07/22 10:59:34;;;;;;;1.10;0.45;;;19.90;99.90;;;;;;5015255;28;20053;-66
2023/07/22 11:02:01;;;;;;;2.15;0.50;;;19.90;99.90;;;;;;5014076;28;20154;-68
2023/07/22 11:04:31;;;;;;;2.05;0.60;;;19.60;99.90;;;;;;5016198;28;20046;-66
2023/07/22 11:07:33;;;;;;;4.57;0.85;;;19.50;99.90;;;;;;5011502;28;20671;-67
2023/07/22 11:10:18;;;;;;;0.70;0.60;;;19.60;99.90;;;;;;5013675;28;20033;-66
2023/07/22 11:12:47;;;;;;;1.38;0.60;;;19.80;99.90;;;;;;5013212;28;20041;-66
2023/07/22 11:15:17;;;;;;;1.30;0.55;;;19.80;99.90;;;;;;5008143;28;20046;-66
2023/07/22 11:17:45;;;;;;;;;;;19.70;99.90;;;;;;5014727;28;20139;-67
2023/07/22 11:20:12;;;;;;;1.38;0.70;;;19.60;99.90;;;;;;5016808;28;19925;-66
2023/07/22 11:22:40;;;;;;;1.17;0.75;;;19.30;99.90;;;;;;5013275;28;20381;-68
2023/07/22 11:25:08;;;;;;;2.88;1.42;;;19.20;99.90;;;;;;5013240;28;20042;-68
2023/07/22 11:27:36;;;;;;;2.97;0.63;;;19.00;99.90;;;;;;5017358;28;20042;-66
2023/07/22 11:30:03;;;;;;;2.97;0.55;;;18.90;99.90;;;;;;5018151;28;20132;-65
2023/07/22 11:32:32;;;;;;;0.75;0.65;;;18.90;99.90;;;;;;5015217;28;20125;-66
2023/07/22 11:34:59;;;;;;;2.72;0.60;;;19.00;99.90;;;;;;5015682;28;20128;-67
2023/07/22 11:37:28;;;;;;;2.15;0.77;;;19.10;99.90;;;;;;5021232;28;20127;-66
2023/07/22 11:40:01;;;;;;;2.85;0.73;;;19.10;99.90;;;;;;5016078;28;20058;-66
2023/07/22 11:42:29;;;;;;;1.58;0.50;;;19.10;99.90;;;;;;5019511;28;20136;-66
2023/07/22 11:44:56;;;;;;;3.78;0.98;;;19.20;99.90;;;;;;5017770;28;20561;-67
2023/07/22 11:47:30;;;;;;;0.98;0.40;;;19.10;99.90;;;;;;5013159;28;20439;-68
2023/07/22 11:49:58;;;;;;;1.50;0.45;;;19.10;99.90;;;;;;5019871;28;20156;-66
2023/07/22 11:52:25;;;;;;;1.67;0.80;;;19.10;99.90;;;;;;5015676;28;20160;-66
2023/07/22 11:54:52;;;;;;;2.72;0.80;;;19.00;99.90;;;;;;5021390;28;20041;-66
2023/07/22 11:57:21;;;;;;;0.50;0.50;;;18.90;99.90;;;;;;5011981;28;20096;-67
2023/07/22 11:59:53;;;;;;;1.02;0.45;;;18.60;99.90;;;;;;5019952;28;20593;-67
2023/07/22 12:02:22;;;;;;;1.67;0.77;;;18.60;99.90;;;;;;5014669;28;20381;-66
2023/07/22 12:04:53;;;;;;;0.82;0.80;;;18.60;99.90;;;;;;5012582;28;20073;-66
2023/07/22 12:07:27;;;;;;;2.90;1.20;;;18.60;99.90;;;;;;5016728;28;20503;-67
2023/07/22 12:09:57;;;;;;;3.97;0.63;;;18.60;99.90;;;;;;5013954;28;20125;-68
2023/07/22 12:12:36;;;;;;;2.45;0.70;;;18.60;99.90;;;;;;5021720;28;20045;-66
2023/07/22 12:15:25;;;;;;;1.75;0.80;;;18.70;99.90;;;;;;5018111;28;20049;-66
2023/07/22 12:17:59;;;;;;;1.67;0.73;;;18.80;99.90;;;;;;5015728;28;20488;-68
2023/07/22 12:20:31;;;;;;;1.10;0.60;;;18.90;99.90;;;;;;5016669;28;20045;-66
2023/07/22 12:22:59;;;;;;;1.77;0.85;;;19.00;99.90;;;;;;5018747;28;20100;-66
2023/07/22 12:25:26;;;;;;;2.28;0.80;;;19.00;99.90;;;;;;5015470;28;20049;-67
2023/07/22 12:27:53;;;;;;;2.13;1.75;;;18.90;99.90;;;;;;5018556;28;20042;-65
2023/07/22 12:30:20;;;;;;;5.57;1.25;;;19.00;99.90;;;;;;5010892;28;20045;-66
2023/07/22 12:32:47;;;;;;;1.40;0.70;;;19.10;99.90;;;;;;5017202;28;20037;-65
2023/07/22 12:35:15;;;;;;;1.80;0.95;;;19.10;99.90;;;;;;5018693;28;20518;-66
2023/07/22 12:37:42;;;;;;;0.52;0.52;;;19.00;99.90;;;;;;5011198;28;20038;-66
2023/07/22 12:40:11;;;;;;;1.17;0.77;;;19.10;99.90;;;;;;5012869;28;20040;-66
2023/07/22 12:42:40;;;;;;;2.13;1.00;;;19.20;99.90;;;;;;5007178;28;20042;-67
2023/07/22 12:45:07;;;;;;;1.75;1.25;;;19.10;99.90;;;;;;5007320;28;20053;-66
2023/07/22 12:47:35;;;;;;;1.75;1.08;;;19.00;99.90;;;;;;5016363;28;20546;-66
2023/07/22 12:50:02;;;;;;;2.08;1.02;;;19.10;99.90;;;;;;5014684;28;20038;-66
2023/07/22 12:52:29;;;;;;;6.00;1.35;;;19.20;99.90;;;;;;5016159;28;20038;-67
2023/07/22 12:54:56;;;;;;;2.40;0.88;;;19.30;99.90;;;;;;5017078;28;20042;-66